sensor_id;sensor_type;location;lat;lon;timestamp;pressure;altitude;pressure_sealevel;temperature;humidity
29935;BME280;19905;53.370;-6.314;2023-04-29T00:01:37;101329.34;;;11.24;100.00
29935;BME280;19905;53.370;-6.314;2023-04-29T00:04:06;101333.16;;;11.20;100.00
29935;BME280;19905;53.370;-6.314;2023-04-29T00:06:35;101329.66;;;11.19;100.00
29935;BME280;19905;53.370;-6.314;2023-04-29T00:09:03;101333.88;;;11.22;100.00
29935;BME280;19905;53.370;-6.314;2023-04-29T00:11:35;101336.97;;;11.16;100.00
29935;BME280;19905;53.370;-6.314;2023-04-29T00:14:03;101338.44;;;11.07;100.00
29935;BME280;19905;53.370;-6.314;2023-04-29T00:16:32;101339.28;;;10.95;100.00
29935;BME280;19905;53.370;-6.314;2023-04-29T00:19:01;101341.59;;;10.87;100.00
29935;BME280;19905;53.370;-6.314;2023-04-29T00:21:30;101341.28;;;10.91;100.00
29935;BME280;19905;53.370;-6.314;2023-04-29T00:24:00;101340.53;;;11.02;100.00
29935;BME280;19905;53.370;-6.314;2023-04-29T00:26:28;101339.81;;;11.00;100.00
29935;BME280;19905;53.370;-6.314;2023-04-29T00:28:59;101341.31;;;11.04;100.00
29935;BME280;19905;53.370;-6.314;2023-04-29T00:31:27;101342.75;;;11.08;100.00
29935;BME280;19905;53.370;-6.314;2023-04-29T00:34:00;101340.88;;;11.10;100.00
29935;BME280;19905;53.370;-6.314;2023-04-29T00:36:30;101342.69;;;11.10;100.00
29935;BME280;19905;53.370;-6.314;2023-04-29T00:39:02;101343.63;;;11.09;100.00
29935;BME280;19905;53.370;-6.314;2023-04-29T00:41:31;101342.22;;;11.03;100.00
29935;BME280;19905;53.370;-6.314;2023-04-29T00:44:02;101339.16;;;10.97;100.00
29935;BME280;19905;53.370;-6.314;2023-04-29T00:46:32;101346.34;;;10.94;100.00
29935;BME280;19905;53.370;-6.314;2023-04-29T00:49:09;101347.28;;;10.81;100.00
29935;BME280;19905;53.370;-6.314;2023-04-29T00:51:40;101341.16;;;10.80;100.00
29935;BME280;19905;53.370;-6.314;2023-04-29T00:54:12;101334.19;;;10.79;100.00
29935;BME280;19905;53.370;-6.314;2023-04-29T00:56:49;101335.13;;;10.78;100.00
29935;BME280;19905;53.370;-6.314;2023-04-29T00:59:21;101334.69;;;10.72;100.00
29935;BME280;19905;53.370;-6.314;2023-04-29T01:01:54;101343.41;;;10.47;100.00
29935;BME280;19905;53.370;-6.314;2023-04-29T01:04:23;101348.69;;;10.47;100.00
29935;BME280;19905;53.370;-6.314;2023-04-29T01:07:01;101352.16;;;10.47;100.00
29935;BME280;19905;53.370;-6.314;2023-04-29T01:09:46;101351.72;;;10.40;100.00
29935;BME280;19905;53.370;-6.314;2023-04-29T01:12:20;101358.84;;;10.26;100.00
29935;BME280;19905;53.370;-6.314;2023-04-29T01:15:03;101349.53;;;10.06;100.00
29935;BME280;19905;53.370;-6.314;2023-04-29T01:17:39;101355.41;;;9.97;100.00
29935;BME280;19905;53.370;-6.314;2023-04-29T01:20:11;101356.50;;;10.07;100.00
29935;BME280;19905;53.370;-6.314;2023-04-29T01:22:42;101357.72;;;10.15;100.00
29935;BME280;19905;53.370;-6.314;2023-04-29T01:25:14;101351.78;;;10.12;100.00
29935;BME280;19905;53.370;-6.314;2023-04-29T01:27:49;101352.91;;;10.22;100.00
29935;BME280;19905;53.370;-6.314;2023-04-29T01:30:30;101357.16;;;10.25;100.00
29935;BME280;19905;53.370;-6.314;2023-04-29T01:33:07;101350.00;;;10.27;100.00
29935;BME280;19905;53.370;-6.314;2023-04-29T01:35:48;101351.19;;;10.21;100.00
29935;BME280;19905;53.370;-6.314;2023-04-29T01:38:27;101343.84;;;10.26;100.00
29935;BME280;19905;53.370;-6.314;2023-04-29T01:41:09;101347.78;;;10.33;100.00
29935;BME280;19905;53.370;-6.314;2023-04-29T01:43:38;101346.84;;;10.34;100.00
29935;BME280;19905;53.370;-6.314;2023-04-29T01:46:09;101342.69;;;10.30;100.00
29935;BME280;19905;53.370;-6.314;2023-04-29T01:48:38;101354.03;;;10.32;100.00
29935;BME280;19905;53.370;-6.314;2023-04-29T01:51:07;101340.91;;;10.31;100.00
29935;BME280;19905;53.370;-6.314;2023-04-29T01:53:39;101347.13;;;10.30;100.00
29935;BME280;19905;53.370;-6.314;2023-04-29T01:56:16;101349.88;;;10.28;100.00
29935;BME280;19905;53.370;-6.314;2023-04-29T01:58:45;101354.50;;;10.25;100.00
29935;BME280;19905;53.370;-6.314;2023-04-29T02:01:13;101354.50;;;10.25;100.00
29935;BME280;19905;53.370;-6.314;2023-04-29T02:03:42;101353.38;;;10.29;100.00
29935;BME280;19905;53.370;-6.314;2023-04-29T02:06:13;101351.69;;;10.28;100.00
29935;BME280;19905;53.370;-6.314;2023-04-29T02:08:41;101342.91;;;10.27;100.00
29935;BME280;19905;53.370;-6.314;2023-04-29T02:11:16;101346.41;;;10.28;100.00
29935;BME280;19905;53.370;-6.314;2023-04-29T02:13:45;101349.78;;;10.30;100.00
29935;BME280;19905;53.370;-6.314;2023-04-29T02:16:14;101354.41;;;10.26;100.00
29935;BME280;19905;53.370;-6.314;2023-04-29T02:18:44;101350.84;;;10.27;100.00
29935;BME280;19905;53.370;-6.314;2023-04-29T02:21:13;101350.16;;;10.24;100.00
29935;BME280;19905;53.370;-6.314;2023-04-29T02:23:42;101349.91;;;10.14;100.00
29935;BME280;19905;53.370;-6.314;2023-04-29T02:26:11;101351.47;;;10.16;100.00
29935;BME280;19905;53.370;-6.314;2023-04-29T02:28:43;101353.38;;;10.14;100.00
29935;BME280;19905;53.370;-6.314;2023-04-29T02:31:15;101348.09;;;10.14;100.00
29935;BME280;19905;53.370;-6.314;2023-04-29T02:33:45;101356.75;;;10.16;100.00
29935;BME280;19905;53.370;-6.314;2023-04-29T02:36:15;101349.69;;;10.17;100.00
29935;BME280;19905;53.370;-6.314;2023-04-29T02:38:50;101354.03;;;10.18;100.00
29935;BME280;19905;53.370;-6.314;2023-04-29T02:41:23;101356.56;;;10.19;100.00
29935;BME280;19905;53.370;-6.314;2023-04-29T02:43:54;101357.81;;;10.14;100.00
29935;BME280;19905;53.370;-6.314;2023-04-29T02:46:23;101368.16;;;10.17;100.00
29935;BME280;19905;53.370;-6.314;2023-04-29T02:48:53;101369.66;;;10.21;100.00
29935;BME280;19905;53.370;-6.314;2023-04-29T02:51:22;101367.88;;;10.22;100.00
29935;BME280;19905;53.370;-6.314;2023-04-29T02:53:50;101376.56;;;10.24;100.00
29935;BME280;19905;53.370;-6.314;2023-04-29T02:56:21;101368.56;;;10.25;100.00
29935;BME280;19905;53.370;-6.314;2023-04-29T02:58:57;101370.91;;;10.30;100.00
29935;BME280;19905;53.370;-6.314;2023-04-29T03:01:26;101361.19;;;10.30;100.00
29935;BME280;19905;53.370;-6.314;2023-04-29T03:03:55;101365.63;;;10.30;100.00
29935;BME280;19905;53.370;-6.314;2023-04-29T03:06:24;101370.81;;;10.31;100.00
29935;BME280;19905;53.370;-6.314;2023-04-29T03:08:55;101372.88;;;10.26;100.00
29935;BME280;19905;53.370;-6.314;2023-04-29T03:11:32;101370.25;;;10.26;100.00
29935;BME280;19905;53.370;-6.314;2023-04-29T03:14:15;101369.09;;;10.30;100.00
29935;BME280;19905;53.370;-6.314;2023-04-29T03:16:43;101376.72;;;10.35;100.00
29935;BME280;19905;53.370;-6.314;2023-04-29T03:19:13;101377.56;;;10.35;100.00
29935;BME280;19905;53.370;-6.314;2023-04-29T03:21:42;101382.84;;;10.35;100.00
29935;BME280;19905;53.370;-6.314;2023-04-29T03:24:12;101387.94;;;10.38;100.00
29935;BME280;19905;53.370;-6.314;2023-04-29T03:26:42;101399.28;;;10.26;100.00
29935;BME280;19905;53.370;-6.314;2023-04-29T03:29:11;101395.31;;;10.33;100.00
29935;BME280;19905;53.370;-6.314;2023-04-29T03:31:42;101394.00;;;10.40;100.00
29935;BME280;19905;53.370;-6.314;2023-04-29T03:34:12;101386.06;;;10.40;100.00
29935;BME280;19905;53.370;-6.314;2023-04-29T03:36:55;101381.53;;;10.42;100.00
29935;BME280;19905;53.370;-6.314;2023-04-29T03:39:23;101387.75;;;10.41;100.00
29935;BME280;19905;53.370;-6.314;2023-04-29T03:42:20;101387.28;;;10.35;100.00
29935;BME280;19905;53.370;-6.314;2023-04-29T03:44:48;101385.84;;;10.43;100.00
29935;BME280;19905;53.370;-6.314;2023-04-29T03:47:21;101383.75;;;10.49;100.00
29935;BME280;19905;53.370;-6.314;2023-04-29T03:49:49;101386.75;;;10.57;100.00
29935;BME280;19905;53.370;-6.314;2023-04-29T03:52:19;101393.53;;;10.61;100.00
29935;BME280;19905;53.370;-6.314;2023-04-29T03:54:48;101389.53;;;10.68;100.00
29935;BME280;19905;53.370;-6.314;2023-04-29T03:57:17;101382.25;;;10.72;100.00
29935;BME280;19905;53.370;-6.314;2023-04-29T03:59:45;101378.56;;;10.74;100.00
29935;BME280;19905;53.370;-6.314;2023-04-29T04:02:17;101375.72;;;10.77;100.00
29935;BME280;19905;53.370;-6.314;2023-04-29T04:04:47;101376.56;;;10.78;100.00
29935;BME280;19905;53.370;-6.314;2023-04-29T04:07:15;101380.72;;;10.82;100.00
29935;BME280;19905;53.370;-6.314;2023-04-29T04:09:44;101376.16;;;10.84;100.00
29935;BME280;19905;53.370;-6.314;2023-04-29T04:12:14;101382.19;;;10.86;100.00
29935;BME280;19905;53.370;-6.314;2023-04-29T04:14:44;101379.44;;;10.87;100.00
29935;BME280;19905;53.370;-6.314;2023-04-29T04:17:15;101383.88;;;10.87;100.00
29935;BME280;19905;53.370;-6.314;2023-04-29T04:19:43;101389.06;;;10.88;100.00
29935;BME280;19905;53.370;-6.314;2023-04-29T04:22:13;101393.81;;;10.83;100.00
29935;BME280;19905;53.370;-6.314;2023-04-29T04:24:43;101387.03;;;10.79;100.00
29935;BME280;19905;53.370;-6.314;2023-04-29T04:27:15;101390.63;;;10.78;100.00
29935;BME280;19905;53.370;-6.314;2023-04-29T04:29:55;101388.81;;;10.79;100.00
29935;BME280;19905;53.370;-6.314;2023-04-29T04:32:25;101383.84;;;10.74;100.00
29935;BME280;19905;53.370;-6.314;2023-04-29T04:34:54;101388.47;;;10.71;100.00
29935;BME280;19905;53.370;-6.314;2023-04-29T04:37:24;101391.22;;;10.69;100.00
29935;BME280;19905;53.370;-6.314;2023-04-29T04:39:53;101398.22;;;10.70;100.00
29935;BME280;19905;53.370;-6.314;2023-04-29T04:42:24;101384.88;;;10.72;100.00
29935;BME280;19905;53.370;-6.314;2023-04-29T04:44:53;101390.47;;;10.67;100.00
29935;BME280;19905;53.370;-6.314;2023-04-29T04:47:23;101387.81;;;10.67;100.00
29935;BME280;19905;53.370;-6.314;2023-04-29T04:49:52;101387.94;;;10.65;100.00
29935;BME280;19905;53.370;-6.314;2023-04-29T04:52:21;101395.69;;;10.68;100.00
29935;BME280;19905;53.370;-6.314;2023-04-29T04:54:53;101390.94;;;10.74;100.00
29935;BME280;19905;53.370;-6.314;2023-04-29T04:57:23;101396.75;;;10.79;100.00
29935;BME280;19905;53.370;-6.314;2023-04-29T04:59:58;101393.06;;;10.81;100.00
29935;BME280;19905;53.370;-6.314;2023-04-29T05:02:28;101400.88;;;10.83;100.00
29935;BME280;19905;53.370;-6.314;2023-04-29T05:04:58;101405.34;;;10.82;100.00
29935;BME280;19905;53.370;-6.314;2023-04-29T05:07:28;101407.88;;;10.84;100.00
29935;BME280;19905;53.370;-6.314;2023-04-29T05:10:03;101402.16;;;10.90;100.00
29935;BME280;19905;53.370;-6.314;2023-04-29T05:12:32;101403.66;;;10.94;100.00
29935;BME280;19905;53.370;-6.314;2023-04-29T05:15:03;101406.00;;;10.99;100.00
29935;BME280;19905;53.370;-6.314;2023-04-29T05:17:33;101406.00;;;10.99;100.00
29935;BME280;19905;53.370;-6.314;2023-04-29T05:20:03;101413.72;;;11.02;100.00
29935;BME280;19905;53.370;-6.314;2023-04-29T05:22:33;101417.03;;;11.05;100.00
29935;BME280;19905;53.370;-6.314;2023-04-29T05:25:06;101409.94;;;11.06;100.00
29935;BME280;19905;53.370;-6.314;2023-04-29T05:27:35;101420.38;;;11.07;100.00
29935;BME280;19905;53.370;-6.314;2023-04-29T05:30:04;101431.72;;;11.09;100.00
29935;BME280;19905;53.370;-6.314;2023-04-29T05:32:33;101440.38;;;11.11;100.00
29935;BME280;19905;53.370;-6.314;2023-04-29T05:35:04;101434.91;;;11.14;100.00
29935;BME280;19905;53.370;-6.314;2023-04-29T05:37:33;101434.38;;;11.22;100.00
29935;BME280;19905;53.370;-6.314;2023-04-29T05:40:03;101447.28;;;11.27;100.00
29935;BME280;19905;53.370;-6.314;2023-04-29T05:42:33;101441.78;;;11.30;100.00
29935;BME280;19905;53.370;-6.314;2023-04-29T05:45:05;101446.03;;;11.32;100.00
29935;BME280;19905;53.370;-6.314;2023-04-29T05:47:34;101445.19;;;11.32;100.00
29935;BME280;19905;53.370;-6.314;2023-04-29T05:50:03;101442.88;;;11.27;100.00
29935;BME280;19905;53.370;-6.314;2023-04-29T05:52:32;101441.16;;;11.26;100.00
29935;BME280;19905;53.370;-6.314;2023-04-29T05:55:00;101448.53;;;11.21;100.00
29935;BME280;19905;53.370;-6.314;2023-04-29T05:57:32;101452.03;;;11.22;100.00
29935;BME280;19905;53.370;-6.314;2023-04-29T06:00:02;101451.84;;;11.25;100.00
29935;BME280;19905;53.370;-6.314;2023-04-29T06:02:32;101456.28;;;11.24;100.00
29935;BME280;19905;53.370;-6.314;2023-04-29T06:05:13;101456.41;;;11.23;100.00
29935;BME280;19905;53.370;-6.314;2023-04-29T06:07:43;101459.03;;;11.23;100.00
29935;BME280;19905;53.370;-6.314;2023-04-29T06:10:12;101457.31;;;11.22;100.00
29935;BME280;19905;53.370;-6.314;2023-04-29T06:12:42;101459.03;;;11.23;100.00
29935;BME280;19905;53.370;-6.314;2023-04-29T06:15:11;101464.22;;;11.24;100.00
29935;BME280;19905;53.370;-6.314;2023-04-29T06:17:39;101457.84;;;11.27;100.00
29935;BME280;19905;53.370;-6.314;2023-04-29T06:20:09;101465.47;;;11.31;100.00
29935;BME280;19905;53.370;-6.314;2023-04-29T06:22:39;101467.81;;;11.36;100.00
29935;BME280;19905;53.370;-6.314;2023-04-29T06:25:09;101473.69;;;11.41;100.00
29935;BME280;19905;53.370;-6.314;2023-04-29T06:27:38;101485.50;;;11.48;100.00
29935;BME280;19905;53.370;-6.314;2023-04-29T06:30:09;101492.19;;;11.54;100.00
29935;BME280;19905;53.370;-6.314;2023-04-29T06:32:39;101489.88;;;11.62;100.00
29935;BME280;19905;53.370;-6.314;2023-04-29T06:35:08;101490.94;;;11.59;100.00
29935;BME280;19905;53.370;-6.314;2023-04-29T06:37:39;101493.34;;;11.62;100.00
29935;BME280;19905;53.370;-6.314;2023-04-29T06:40:10;101494.72;;;11.68;100.00
29935;BME280;19905;53.370;-6.314;2023-04-29T06:42:38;101500.13;;;11.66;100.00
29935;BME280;19905;53.370;-6.314;2023-04-29T06:45:10;101500.25;;;11.65;100.00
29935;BME280;19905;53.370;-6.314;2023-04-29T06:47:38;101501.81;;;11.67;100.00
29935;BME280;19905;53.370;-6.314;2023-04-29T06:50:08;101507.66;;;11.73;100.00
29935;BME280;19905;53.370;-6.314;2023-04-29T06:52:38;101511.91;;;11.75;100.00
29935;BME280;19905;53.370;-6.314;2023-04-29T06:55:07;101514.34;;;11.78;100.00
29935;BME280;19905;53.370;-6.314;2023-04-29T06:57:38;101514.34;;;11.78;100.00
29935;BME280;19905;53.370;-6.314;2023-04-29T07:00:11;101521.03;;;11.84;100.00
29935;BME280;19905;53.370;-6.314;2023-04-29T07:02:42;101517.88;;;11.91;100.00
29935;BME280;19905;53.370;-6.314;2023-04-29T07:05:12;101524.31;;;12.00;100.00
29935;BME280;19905;53.370;-6.314;2023-04-29T07:07:41;101521.16;;;12.08;100.00
29935;BME280;19905;53.370;-6.314;2023-04-29T07:10:09;101519.84;;;12.13;100.00
29935;BME280;19905;53.370;-6.314;2023-04-29T07:12:38;101522.94;;;12.20;100.00
29935;BME280;19905;53.370;-6.314;2023-04-29T07:15:08;101523.34;;;12.27;100.00
29935;BME280;19905;53.370;-6.314;2023-04-29T07:17:45;101526.84;;;12.27;100.00
29935;BME280;19905;53.370;-6.314;2023-04-29T07:20:16;101524.09;;;12.29;100.00
29935;BME280;19905;53.370;-6.314;2023-04-29T07:22:49;101528.56;;;12.28;100.00
29935;BME280;19905;53.370;-6.314;2023-04-29T07:25:22;101533.72;;;12.30;100.00
29935;BME280;19905;53.370;-6.314;2023-04-29T07:27:51;101537.09;;;12.32;100.00
29935;BME280;19905;53.370;-6.314;2023-04-29T07:30:21;101529.06;;;12.33;100.00
29935;BME280;19905;53.370;-6.314;2023-04-29T07:32:53;101537.75;;;12.35;100.00
29935;BME280;19905;53.370;-6.314;2023-04-29T07:35:22;101533.94;;;12.39;100.00
29935;BME280;19905;53.370;-6.314;2023-04-29T07:37:51;101532.44;;;12.48;100.00
29935;BME280;19905;53.370;-6.314;2023-04-29T07:40:20;101540.69;;;12.56;100.00
29935;BME280;19905;53.370;-6.314;2023-04-29T07:42:53;101541.09;;;12.63;100.00
29935;BME280;19905;53.370;-6.314;2023-04-29T07:45:22;101540.88;;;12.66;100.00
29935;BME280;19905;53.370;-6.314;2023-04-29T07:47:54;101537.97;;;12.69;100.00
29935;BME280;19905;53.370;-6.314;2023-04-29T07:50:23;101534.16;;;12.73;100.00
29935;BME280;19905;53.370;-6.314;2023-04-29T07:52:54;101534.34;;;12.83;100.00
29935;BME280;19905;53.370;-6.314;2023-04-29T07:55:29;101539.41;;;12.86;100.00
29935;BME280;19905;53.370;-6.314;2023-04-29T07:57:57;101535.38;;;12.93;100.00
29935;BME280;19905;53.370;-6.314;2023-04-29T08:00:30;101538.28;;;13.01;100.00
29935;BME280;19905;53.370;-6.314;2023-04-29T08:03:01;101532.56;;;13.07;100.00
29935;BME280;19905;53.370;-6.314;2023-04-29T08:05:31;101535.09;;;13.09;100.00
29935;BME280;19905;53.370;-6.314;2023-04-29T08:08:00;101538.38;;;13.12;100.00
29935;BME280;19905;53.370;-6.314;2023-04-29T08:10:28;101536.56;;;13.13;100.00
29935;BME280;19905;53.370;-6.314;2023-04-29T08:12:57;101539.72;;;13.18;100.00
29935;BME280;19905;53.370;-6.314;2023-04-29T08:15:26;101537.50;;;13.25;100.00
29935;BME280;19905;53.370;-6.314;2023-04-29T08:17:55;101544.78;;;13.21;100.00
29935;BME280;19905;53.370;-6.314;2023-04-29T08:20:25;101541.84;;;13.26;100.00
29935;BME280;19905;53.370;-6.314;2023-04-29T08:22:57;101547.44;;;13.34;100.00
29935;BME280;19905;53.370;-6.314;2023-04-29T08:25:28;101542.00;;;13.35;100.00
29935;BME280;19905;53.370;-6.314;2023-04-29T08:27:56;101547.44;;;13.34;100.00
29935;BME280;19905;53.370;-6.314;2023-04-29T08:30:25;101551.59;;;13.25;100.00
29935;BME280;19905;53.370;-6.314;2023-04-29T08:32:54;101546.31;;;13.25;100.00
29935;BME280;19905;53.370;-6.314;2023-04-29T08:35:24;101547.31;;;13.35;100.00
29935;BME280;19905;53.370;-6.314;2023-04-29T08:37:52;101548.47;;;13.31;100.00
29935;BME280;19905;53.370;-6.314;2023-04-29T08:40:21;101549.22;;;13.33;100.00
29935;BME280;19905;53.370;-6.314;2023-04-29T08:42:51;101551.13;;;13.31;100.00
29935;BME280;19905;53.370;-6.314;2023-04-29T08:45:22;101549.94;;;13.35;100.00
29935;BME280;19905;53.370;-6.314;2023-04-29T08:47:52;101549.38;;;13.43;100.00
29935;BME280;19905;53.370;-6.314;2023-04-29T08:50:23;101552.69;;;13.58;100.00
29935;BME280;19905;53.370;-6.314;2023-04-29T08:52:54;101549.34;;;13.67;100.00
29935;BME280;19905;53.370;-6.314;2023-04-29T08:55:23;101544.88;;;13.79;100.00
29935;BME280;19905;53.370;-6.314;2023-04-29T08:57:53;101546.13;;;13.86;100.00
29935;BME280;19905;53.370;-6.314;2023-04-29T09:00:23;101550.09;;;13.91;100.00
29935;BME280;19905;53.370;-6.314;2023-04-29T09:02:53;101549.75;;;13.96;100.00
29935;BME280;19905;53.370;-6.314;2023-04-29T09:05:24;101548.06;;;14.06;100.00
29935;BME280;19905;53.370;-6.314;2023-04-29T09:07:55;101538.78;;;14.23;100.00
29935;BME280;19905;53.370;-6.314;2023-04-29T09:10:25;101540.97;;;14.52;100.00
29935;BME280;19905;53.370;-6.314;2023-04-29T09:12:55;101543.00;;;14.70;100.00
29935;BME280;19905;53.370;-6.314;2023-04-29T09:15:25;101544.16;;;14.89;100.00
29935;BME280;19905;53.370;-6.314;2023-04-29T09:17:56;101539.91;;;14.97;100.00
29935;BME280;19905;53.370;-6.314;2023-04-29T09:20:26;101534.59;;;15.09;100.00
29935;BME280;19905;53.370;-6.314;2023-04-29T09:22:58;101538.09;;;15.09;100.00
29935;BME280;19905;53.370;-6.314;2023-04-29T09:25:28;101536.50;;;15.18;100.00
29935;BME280;19905;53.370;-6.314;2023-04-29T09:27:57;101541.28;;;15.24;100.00
29935;BME280;19905;53.370;-6.314;2023-04-29T09:30:25;101544.84;;;15.13;100.00
29935;BME280;19905;53.370;-6.314;2023-04-29T09:33:05;101542.72;;;14.96;100.00
29935;BME280;19905;53.370;-6.314;2023-04-29T09:35:34;101541.72;;;15.08;100.00
29935;BME280;19905;53.370;-6.314;2023-04-29T09:38:15;101543.72;;;15.16;100.00
29935;BME280;19905;53.370;-6.314;2023-04-29T09:40:44;101542.13;;;15.24;100.00
29935;BME280;19905;53.370;-6.314;2023-04-29T09:43:25;101537.72;;;15.35;100.00
29935;BME280;19905;53.370;-6.314;2023-04-29T09:45:54;101533.22;;;15.46;100.00
29935;BME280;19905;53.370;-6.314;2023-04-29T09:48:30;101521.78;;;15.56;100.00
29935;BME280;19905;53.370;-6.314;2023-04-29T09:51:00;101528.38;;;15.72;100.00
29935;BME280;19905;53.370;-6.314;2023-04-29T09:53:31;101522.72;;;15.66;100.00
29935;BME280;19905;53.370;-6.314;2023-04-29T09:56:04;101521.69;;;15.78;100.00
29935;BME280;19905;53.370;-6.314;2023-04-29T09:58:34;101510.31;;;15.76;100.00
29935;BME280;19905;53.370;-6.314;2023-04-29T10:01:05;101510.31;;;16.07;100.00
29935;BME280;19905;53.370;-6.314;2023-04-29T10:03:35;101506.13;;;16.04;100.00
29935;BME280;19905;53.370;-6.314;2023-04-29T10:06:06;101498.69;;;16.08;100.00
29935;BME280;19905;53.370;-6.314;2023-04-29T10:08:37;101499.25;;;16.11;100.00
29935;BME280;19905;53.370;-6.314;2023-04-29T10:11:10;101494.16;;;16.29;100.00
29935;BME280;19905;53.370;-6.314;2023-04-29T10:13:45;101485.69;;;16.55;100.00
29935;BME280;19905;53.370;-6.314;2023-04-29T10:17:02;101478.44;;;16.86;100.00
29935;BME280;19905;53.370;-6.314;2023-04-29T10:19:46;101464.34;;;17.51;100.00
29935;BME280;19905;53.370;-6.314;2023-04-29T10:22:28;101464.59;;;18.15;100.00
29935;BME280;19905;53.370;-6.314;2023-04-29T10:27:40;101448.41;;;18.16;100.00
29935;BME280;19905;53.370;-6.314;2023-04-29T10:30:12;101442.16;;;17.41;100.00
29935;BME280;19905;53.370;-6.314;2023-04-29T10:32:43;101452.84;;;17.41;100.00
29935;BME280;19905;53.370;-6.314;2023-04-29T10:35:21;101460.16;;;17.96;100.00
29935;BME280;19905;53.370;-6.314;2023-04-29T10:37:53;101451.88;;;17.89;100.00
29935;BME280;19905;53.370;-6.314;2023-04-29T10:40:31;101451.69;;;18.56;100.00
29935;BME280;19905;53.370;-6.314;2023-04-29T10:43:04;101446.97;;;18.67;100.00
29935;BME280;19905;53.370;-6.314;2023-04-29T10:45:34;101452.00;;;18.52;100.00
29935;BME280;19905;53.370;-6.314;2023-04-29T10:48:13;101458.34;;;17.96;100.00
29935;BME280;19905;53.370;-6.314;2023-04-29T10:51:07;101459.72;;;17.44;100.00
29935;BME280;19905;53.370;-6.314;2023-04-29T10:54:03;101463.69;;;17.11;100.00
29935;BME280;19905;53.370;-6.314;2023-04-29T10:56:42;101484.31;;;17.47;100.00
29935;BME280;19905;53.370;-6.314;2023-04-29T10:59:20;101471.03;;;17.85;100.00
29935;BME280;19905;53.370;-6.314;2023-04-29T11:02:00;101471.41;;;17.43;100.00
29935;BME280;19905;53.370;-6.314;2023-04-29T11:05:08;101475.78;;;17.05;100.00
29935;BME280;19905;53.370;-6.314;2023-04-29T11:07:42;101479.50;;;16.64;100.00
29935;BME280;19905;53.370;-6.314;2023-04-29T11:10:18;101480.06;;;17.54;100.00
29935;BME280;19905;53.370;-6.314;2023-04-29T11:13:24;101468.91;;;16.93;100.00
29935;BME280;19905;53.370;-6.314;2023-04-29T11:16:25;101486.38;;;16.66;100.00
29935;BME280;19905;53.370;-6.314;2023-04-29T11:22:26;101497.38;;;16.23;100.00
29935;BME280;19905;53.370;-6.314;2023-04-29T11:25:11;101507.63;;;16.27;100.00
29935;BME280;19905;53.370;-6.314;2023-04-29T11:27:50;101503.94;;;16.19;100.00
29935;BME280;19905;53.370;-6.314;2023-04-29T11:34:24;101515.16;;;15.50;100.00
29935;BME280;19905;53.370;-6.314;2023-04-29T11:37:21;101510.28;;;15.55;100.00
29935;BME280;19905;53.370;-6.314;2023-04-29T11:40:00;101512.22;;;15.53;100.00
29935;BME280;19905;53.370;-6.314;2023-04-29T11:42:42;101503.66;;;15.91;100.00
29935;BME280;19905;53.370;-6.314;2023-04-29T11:45:20;101502.88;;;16.00;100.00
29935;BME280;19905;53.370;-6.314;2023-04-29T11:47:48;101491.63;;;16.27;100.00
29935;BME280;19905;53.370;-6.314;2023-04-29T11:50:30;101472.81;;;17.18;100.00
29935;BME280;19905;53.370;-6.314;2023-04-29T11:53:01;101458.09;;;17.14;100.00
29935;BME280;19905;53.370;-6.314;2023-04-29T11:55:29;101447.75;;;17.48;100.00
29935;BME280;19905;53.370;-6.314;2023-04-29T11:58:06;101444.72;;;17.90;100.00
29935;BME280;19905;53.370;-6.314;2023-04-29T12:00:56;101438.38;;;17.91;100.00
29935;BME280;19905;53.370;-6.314;2023-04-29T12:03:25;101432.06;;;18.19;100.00
29935;BME280;19905;53.370;-6.314;2023-04-29T12:05:56;101434.22;;;18.97;100.00
29935;BME280;19905;53.370;-6.314;2023-04-29T12:08:26;101419.31;;;18.94;100.00
29935;BME280;19905;53.370;-6.314;2023-04-29T12:10:59;101421.44;;;18.27;100.00
29935;BME280;19905;53.370;-6.314;2023-04-29T12:13:29;101416.81;;;18.29;100.00
29935;BME280;19905;53.370;-6.314;2023-04-29T12:15:59;101412.16;;;18.49;100.00
29935;BME280;19905;53.370;-6.314;2023-04-29T12:18:28;101411.78;;;18.62;100.00
29935;BME280;19905;53.370;-6.314;2023-04-29T12:20:58;101421.47;;;18.45;100.00
29935;BME280;19905;53.370;-6.314;2023-04-29T12:23:28;101407.38;;;19.07;100.00
29935;BME280;19905;53.370;-6.314;2023-04-29T12:26:04;101401.88;;;18.90;100.00
29935;BME280;19905;53.370;-6.314;2023-04-29T12:28:43;101410.75;;;18.27;100.00
29935;BME280;19905;53.370;-6.314;2023-04-29T12:31:14;101409.72;;;18.56;100.00
29935;BME280;19905;53.370;-6.314;2023-04-29T12:33:43;101409.59;;;18.75;100.00
29935;BME280;19905;53.370;-6.314;2023-04-29T12:36:17;101401.22;;;18.96;100.00
29935;BME280;19905;53.370;-6.314;2023-04-29T12:38:47;101399.00;;;19.10;100.00
29935;BME280;19905;53.370;-6.314;2023-04-29T12:41:18;101391.09;;;19.52;100.00
29935;BME280;19905;53.370;-6.314;2023-04-29T12:43:49;101386.16;;;18.95;100.00
29935;BME280;19905;53.370;-6.314;2023-04-29T12:46:20;101391.56;;;19.21;100.00
29935;BME280;19905;53.370;-6.314;2023-04-29T12:48:50;101394.00;;;18.89;100.00
29935;BME280;19905;53.370;-6.314;2023-04-29T12:51:20;101388.84;;;18.95;100.00
29935;BME280;19905;53.370;-6.314;2023-04-29T12:53:49;101397.78;;;18.50;100.00
29935;BME280;19905;53.370;-6.314;2023-04-29T12:56:44;101394.66;;;18.55;100.00
29935;BME280;19905;53.370;-6.314;2023-04-29T12:59:16;101399.03;;;18.92;100.00
29935;BME280;19905;53.370;-6.314;2023-04-29T13:01:59;101404.84;;;18.51;100.00
29935;BME280;19905;53.370;-6.314;2023-04-29T13:04:32;101399.94;;;18.65;100.00
29935;BME280;19905;53.370;-6.314;2023-04-29T13:07:02;101392.25;;;18.79;100.00